sensor_id;sensor_type;location;lat;lon;timestamp;temperature;humidity
18207;DHT22;9229;52.354;20.886;2024-03-02T00:36:14;7.50;99.90
18207;DHT22;9229;52.354;20.886;2024-03-02T00:53:33;7.20;99.90
18207;DHT22;9229;52.354;20.886;2024-03-02T00:58:39;7.30;99.90
18207;DHT22;9229;52.354;20.886;2024-03-02T01:03:48;7.30;99.90
18207;DHT22;9229;52.354;20.886;2024-03-02T01:15:04;7.30;99.90
18207;DHT22;9229;52.354;20.886;2024-03-02T01:20:17;7.20;99.90
18207;DHT22;9229;52.354;20.886;2024-03-02T01:26:03;7.10;99.90
18207;DHT22;9229;52.354;20.886;2024-03-02T01:37:39;7.00;99.90
18207;DHT22;9229;52.354;20.886;2024-03-02T01:43:34;7.00;99.90
18207;DHT22;9229;52.354;20.886;2024-03-02T01:49:08;6.90;99.90
18207;DHT22;9229;52.354;20.886;2024-03-02T01:54:41;6.90;99.90
18207;DHT22;9229;52.354;20.886;2024-03-02T02:05:47;6.70;99.90
18207;DHT22;9229;52.354;20.886;2024-03-02T02:11:09;6.80;99.90
18207;DHT22;9229;52.354;20.886;2024-03-02T02:16:24;6.70;99.90
18207;DHT22;9229;52.354;20.886;2024-03-02T02:27:35;6.50;99.90
18207;DHT22;9229;52.354;20.886;2024-03-02T02:32:41;6.50;99.90
18207;DHT22;9229;52.354;20.886;2024-03-02T02:37:52;6.70;99.90
18207;DHT22;9229;52.354;20.886;2024-03-02T02:42:58;6.70;99.90
18207;DHT22;9229;52.354;20.886;2024-03-02T02:48:01;6.60;99.90
18207;DHT22;9229;52.354;20.886;2024-03-02T02:53:16;6.60;99.90
18207;DHT22;9229;52.354;20.886;2024-03-02T02:58:45;6.60;99.90
18207;DHT22;9229;52.354;20.886;2024-03-02T03:04:06;6.50;99.90
18207;DHT22;9229;52.354;20.886;2024-03-02T03:09:17;6.50;99.90
18207;DHT22;9229;52.354;20.886;2024-03-02T03:14:24;6.50;99.90
18207;DHT22;9229;52.354;20.886;2024-03-02T03:19:32;6.50;99.90
18207;DHT22;9229;52.354;20.886;2024-03-02T03:24:39;6.20;99.90
18207;DHT22;9229;52.354;20.886;2024-03-02T03:30:00;6.40;99.90
18207;DHT22;9229;52.354;20.886;2024-03-02T03:35:20;6.30;99.90
18207;DHT22;9229;52.354;20.886;2024-03-02T03:40:38;6.30;99.90
18207;DHT22;9229;52.354;20.886;2024-03-02T03:45:52;6.10;99.90
18207;DHT22;9229;52.354;20.886;2024-03-02T03:51:18;6.20;99.90
18207;DHT22;9229;52.354;20.886;2024-03-02T03:56:35;6.10;99.90
18207;DHT22;9229;52.354;20.886;2024-03-02T04:02:11;6.10;99.90
18207;DHT22;9229;52.354;20.886;2024-03-02T04:07:18;6.00;99.90
18207;DHT22;9229;52.354;20.886;2024-03-02T04:12:43;6.00;99.90
18207;DHT22;9229;52.354;20.886;2024-03-02T04:17:56;6.00;99.90
18207;DHT22;9229;52.354;20.886;2024-03-02T04:23:21;6.00;99.90
18207;DHT22;9229;52.354;20.886;2024-03-02T04:28:44;5.90;99.90
18207;DHT22;9229;52.354;20.886;2024-03-02T04:33:50;6.00;99.90
18207;DHT22;9229;52.354;20.886;2024-03-02T04:39:14;6.00;99.90
18207;DHT22;9229;52.354;20.886;2024-03-02T04:44:39;5.90;99.90
18207;DHT22;9229;52.354;20.886;2024-03-02T04:50:05;5.90;99.90
18207;DHT22;9229;52.354;20.886;2024-03-02T04:55:32;5.90;99.90
18207;DHT22;9229;52.354;20.886;2024-03-02T05:00:57;5.90;99.90
18207;DHT22;9229;52.354;20.886;2024-03-02T05:06:15;5.80;99.90
18207;DHT22;9229;52.354;20.886;2024-03-02T05:11:29;5.80;99.90
18207;DHT22;9229;52.354;20.886;2024-03-02T05:16:52;5.80;99.90
18207;DHT22;9229;52.354;20.886;2024-03-02T05:22:07;5.80;99.90
18207;DHT22;9229;52.354;20.886;2024-03-02T05:27:29;5.60;99.90
18207;DHT22;9229;52.354;20.886;2024-03-02T05:32:41;5.70;99.90
18207;DHT22;9229;52.354;20.886;2024-03-02T05:38:03;5.80;99.90
18207;DHT22;9229;52.354;20.886;2024-03-02T05:43:08;5.80;99.90
18207;DHT22;9229;52.354;20.886;2024-03-02T05:48:17;5.80;99.90
18207;DHT22;9229;52.354;20.886;2024-03-02T05:53:36;5.80;99.90
18207;DHT22;9229;52.354;20.886;2024-03-02T05:58:54;5.80;99.90
18207;DHT22;9229;52.354;20.886;2024-03-02T06:04:12;5.80;99.90
18207;DHT22;9229;52.354;20.886;2024-03-02T06:09:33;5.80;99.90
18207;DHT22;9229;52.354;20.886;2024-03-02T06:14:38;5.90;99.90
18207;DHT22;9229;52.354;20.886;2024-03-02T06:19:47;5.90;99.90
18207;DHT22;9229;52.354;20.886;2024-03-02T06:25:10;5.90;99.90
18207;DHT22;9229;52.354;20.886;2024-03-02T06:30:24;6.00;99.90
18207;DHT22;9229;52.354;20.886;2024-03-02T06:35:43;6.00;99.90
18207;DHT22;9229;52.354;20.886;2024-03-02T06:40:59;6.00;99.90
18207;DHT22;9229;52.354;20.886;2024-03-02T06:46:01;6.20;99.90
18207;DHT22;9229;52.354;20.886;2024-03-02T06:51:03;6.20;99.90
18207;DHT22;9229;52.354;20.886;2024-03-02T06:56:07;6.20;99.90
18207;DHT22;9229;52.354;20.886;2024-03-02T07:01:09;6.30;99.90
18207;DHT22;9229;52.354;20.886;2024-03-02T07:06:12;6.40;99.90
18207;DHT22;9229;52.354;20.886;2024-03-02T07:11:15;6.50;99.90
18207;DHT22;9229;52.354;20.886;2024-03-02T07:16:17;6.70;99.90
18207;DHT22;9229;52.354;20.886;2024-03-02T07:28:28;6.80;99.90
18207;DHT22;9229;52.354;20.886;2024-03-02T07:33:43;6.80;99.90
18207;DHT22;9229;52.354;20.886;2024-03-02T07:39:08;7.10;99.90
18207;DHT22;9229;52.354;20.886;2024-03-02T07:44:27;7.20;99.90
18207;DHT22;9229;52.354;20.886;2024-03-02T07:49:55;7.20;99.90
18207;DHT22;9229;52.354;20.886;2024-03-02T07:55:17;7.20;99.90
18207;DHT22;9229;52.354;20.886;2024-03-02T08:00:29;7.30;99.90
18207;DHT22;9229;52.354;20.886;2024-03-02T08:05:44;7.40;99.90
18207;DHT22;9229;52.354;20.886;2024-03-02T08:10:50;7.50;99.90
18207;DHT22;9229;52.354;20.886;2024-03-02T08:16:38;7.60;99.90
18207;DHT22;9229;52.354;20.886;2024-03-02T08:21:59;7.60;99.90
18207;DHT22;9229;52.354;20.886;2024-03-02T08:27:30;7.70;99.90
18207;DHT22;9229;52.354;20.886;2024-03-02T08:39:42;7.90;99.90
18207;DHT22;9229;52.354;20.886;2024-03-02T08:45:39;8.00;99.90
18207;DHT22;9229;52.354;20.886;2024-03-02T08:51:03;7.90;99.90
18207;DHT22;9229;52.354;20.886;2024-03-02T08:56:58;8.00;99.90
18207;DHT22;9229;52.354;20.886;2024-03-02T09:02:35;7.90;99.90
18207;DHT22;9229;52.354;20.886;2024-03-02T09:07:59;8.00;99.90
18207;DHT22;9229;52.354;20.886;2024-03-02T09:13:24;8.00;99.90
18207;DHT22;9229;52.354;20.886;2024-03-02T09:18:31;8.00;99.90
18207;DHT22;9229;52.354;20.886;2024-03-02T09:23:46;8.20;99.90
18207;DHT22;9229;52.354;20.886;2024-03-02T09:29:10;8.40;99.90
18207;DHT22;9229;52.354;20.886;2024-03-02T09:34:17;8.60;99.90
18207;DHT22;9229;52.354;20.886;2024-03-02T09:39:23;9.00;99.90
18207;DHT22;9229;52.354;20.886;2024-03-02T09:44:34;9.10;99.90
18207;DHT22;9229;52.354;20.886;2024-03-02T09:49:57;9.20;99.90
18207;DHT22;9229;52.354;20.886;2024-03-02T10:03:03;9.40;99.90
18207;DHT22;9229;52.354;20.886;2024-03-02T10:08:13;9.40;99.90
18207;DHT22;9229;52.354;20.886;2024-03-02T10:14:04;9.40;99.90
18207;DHT22;9229;52.354;20.886;2024-03-02T10:19:21;9.60;99.90
18207;DHT22;9229;52.354;20.886;2024-03-02T10:24:23;9.80;99.90
18207;DHT22;9229;52.354;20.886;2024-03-02T10:29:29;10.20;99.90
18207;DHT22;9229;52.354;20.886;2024-03-02T10:34:33;10.60;99.90
18207;DHT22;9229;52.354;20.886;2024-03-02T10:39:35;11.00;99.90
18207;DHT22;9229;52.354;20.886;2024-03-02T10:44:37;11.20;99.90
18207;DHT22;9229;52.354;20.886;2024-03-02T10:49:46;11.20;99.90
18207;DHT22;9229;52.354;20.886;2024-03-02T10:54:59;11.20;99.90
18207;DHT22;9229;52.354;20.886;2024-03-02T11:00:03;11.20;99.90
18207;DHT22;9229;52.354;20.886;2024-03-02T11:05:10;11.30;99.90
18207;DHT22;9229;52.354;20.886;2024-03-02T11:10:12;11.60;99.90
18207;DHT22;9229;52.354;20.886;2024-03-02T11:15:18;11.90;99.90
18207;DHT22;9229;52.354;20.886;2024-03-02T11:20:22;12.20;99.90
18207;DHT22;9229;52.354;20.886;2024-03-02T11:25:26;12.20;99.90
18207;DHT22;9229;52.354;20.886;2024-03-02T11:30:52;12.10;99.90
18207;DHT22;9229;52.354;20.886;2024-03-02T11:35:56;12.10;99.90
18207;DHT22;9229;52.354;20.886;2024-03-02T11:41:00;12.10;99.90
18207;DHT22;9229;52.354;20.886;2024-03-02T11:46:05;12.00;99.90
18207;DHT22;9229;52.354;20.886;2024-03-02T11:51:11;12.10;99.90
18207;DHT22;9229;52.354;20.886;2024-03-02T11:56:14;12.40;99.90
18207;DHT22;9229;52.354;20.886;2024-03-02T12:01:17;12.60;99.90
18207;DHT22;9229;52.354;20.886;2024-03-02T12:06:22;12.70;99.90
18207;DHT22;9229;52.354;20.886;2024-03-02T12:11:24;12.40;99.90
18207;DHT22;9229;52.354;20.886;2024-03-02T12:16:26;12.10;99.90
18207;DHT22;9229;52.354;20.886;2024-03-02T12:21:35;12.10;99.90
18207;DHT22;9229;52.354;20.886;2024-03-02T12:26:38;12.20;99.90
18207;DHT22;9229;52.354;20.886;2024-03-02T12:31:42;12.40;99.90
18207;DHT22;9229;52.354;20.886;2024-03-02T12:36:47;12.50;99.90
18207;DHT22;9229;52.354;20.886;2024-03-02T12:41:50;12.60;99.90
18207;DHT22;9229;52.354;20.886;2024-03-02T12:46:54;12.70;99.90
18207;DHT22;9229;52.354;20.886;2024-03-02T12:51:59;12.70;99.90
18207;DHT22;9229;52.354;20.886;2024-03-02T12:57:04;12.70;99.90
18207;DHT22;9229;52.354;20.886;2024-03-02T13:02:06;12.70;99.90
18207;DHT22;9229;52.354;20.886;2024-03-02T13:07:15;12.60;99.90
18207;DHT22;9229;52.354;20.886;2024-03-02T13:12:19;12.60;99.90
18207;DHT22;9229;52.354;20.886;2024-03-02T13:17:22;12.60;99.90
18207;DHT22;9229;52.354;20.886;2024-03-02T13:22:25;12.50;99.90
18207;DHT22;9229;52.354;20.886;2024-03-02T13:27:28;12.50;99.90
18207;DHT22;9229;52.354;20.886;2024-03-02T13:32:32;12.40;99.90
18207;DHT22;9229;52.354;20.886;2024-03-02T13:37:37;12.40;99.90
18207;DHT22;9229;52.354;20.886;2024-03-02T13:42:39;12.40;99.90
18207;DHT22;9229;52.354;20.886;2024-03-02T13:47:41;12.30;99.90
18207;DHT22;9229;52.354;20.886;2024-03-02T13:52:47;12.30;99.90
18207;DHT22;9229;52.354;20.886;2024-03-02T13:57:49;12.20;99.90
18207;DHT22;9229;52.354;20.886;2024-03-02T14:02:51;12.10;99.90
18207;DHT22;9229;52.354;20.886;2024-03-02T14:07:56;12.10;99.90
18207;DHT22;9229;52.354;20.886;2024-03-02T14:13:00;12.00;99.90
18207;DHT22;9229;52.354;20.886;2024-03-02T14:18:03;11.80;99.90
18207;DHT22;9229;52.354;20.886;2024-03-02T14:23:06;11.70;99.90
18207;DHT22;9229;52.354;20.886;2024-03-02T14:28:10;11.60;99.90
18207;DHT22;9229;52.354;20.886;2024-03-02T14:33:13;11.50;99.90
18207;DHT22;9229;52.354;20.886;2024-03-02T14:38:21;11.40;99.90
18207;DHT22;9229;52.354;20.886;2024-03-02T14:43:24;11.20;99.90
18207;DHT22;9229;52.354;20.886;2024-03-02T14:48:26;11.30;99.90
18207;DHT22;9229;52.354;20.886;2024-03-02T14:53:32;11.20;99.90
18207;DHT22;9229;52.354;20.886;2024-03-02T14:58:34;11.10;99.90
18207;DHT22;9229;52.354;20.886;2024-03-02T15:03:40;11.00;99.90
18207;DHT22;9229;52.354;20.886;2024-03-02T15:08:44;10.90;99.90
18207;DHT22;9229;52.354;20.886;2024-03-02T15:13:48;10.80;99.90
18207;DHT22;9229;52.354;20.886;2024-03-02T15:18:50;10.70;99.90
18207;DHT22;9229;52.354;20.886;2024-03-02T15:23:53;10.50;99.90
18207;DHT22;9229;52.354;20.886;2024-03-02T15:28:56;10.50;99.90
18207;DHT22;9229;52.354;20.886;2024-03-02T15:34:00;10.40;99.90
18207;DHT22;9229;52.354;20.886;2024-03-02T15:39:03;10.30;99.90
18207;DHT22;9229;52.354;20.886;2024-03-02T15:44:09;10.20;99.90
18207;DHT22;9229;52.354;20.886;2024-03-02T15:49:14;10.10;99.90
18207;DHT22;9229;52.354;20.886;2024-03-02T15:54:17;10.10;99.90
18207;DHT22;9229;52.354;20.886;2024-03-02T15:59:19;9.90;99.90
18207;DHT22;9229;52.354;20.886;2024-03-02T16:04:21;9.80;99.90
18207;DHT22;9229;52.354;20.886;2024-03-02T16:09:25;9.80;99.90
18207;DHT22;9229;52.354;20.886;2024-03-02T16:14:27;9.70;99.90
18207;DHT22;9229;52.354;20.886;2024-03-02T16:19:35;9.60;99.90
18207;DHT22;9229;52.354;20.886;2024-03-02T16:24:44;9.60;99.90
18207;DHT22;9229;52.354;20.886;2024-03-02T16:29:46;9.50;99.90
18207;DHT22;9229;52.354;20.886;2024-03-02T16:34:53;9.40;99.90
18207;DHT22;9229;52.354;20.886;2024-03-02T16:39:57;9.30;99.90
18207;DHT22;9229;52.354;20.886;2024-03-02T16:45:01;9.10;99.90
18207;DHT22;9229;52.354;20.886;2024-03-02T16:50:13;9.10;99.90
18207;DHT22;9229;52.354;20.886;2024-03-02T16:55:18;9.00;99.90
18207;DHT22;9229;52.354;20.886;2024-03-02T17:00:21;8.90;99.90
18207;DHT22;9229;52.354;20.886;2024-03-02T17:05:23;8.80;99.90
18207;DHT22;9229;52.354;20.886;2024-03-02T17:10:43;8.80;99.90
18207;DHT22;9229;52.354;20.886;2024-03-02T17:15:46;8.70;99.90
18207;DHT22;9229;52.354;20.886;2024-03-02T17:20:48;8.70;99.90
18207;DHT22;9229;52.354;20.886;2024-03-02T17:25:52;8.60;99.90
18207;DHT22;9229;52.354;20.886;2024-03-02T17:30:54;8.60;99.90
18207;DHT22;9229;52.354;20.886;2024-03-02T17:35:56;8.60;99.90
18207;DHT22;9229;52.354;20.886;2024-03-02T17:41:00;8.60;99.90
18207;DHT22;9229;52.354;20.886;2024-03-02T17:46:02;8.50;99.90
18207;DHT22;9229;52.354;20.886;2024-03-02T17:51:06;8.50;99.90
18207;DHT22;9229;52.354;20.886;2024-03-02T17:56:11;8.50;99.90
18207;DHT22;9229;52.354;20.886;2024-03-02T18:01:13;8.50;99.90
18207;DHT22;9229;52.354;20.886;2024-03-02T18:06:15;8.50;99.90
18207;DHT22;9229;52.354;20.886;2024-03-02T18:11:20;8.50;99.90
18207;DHT22;9229;52.354;20.886;2024-03-02T18:16:24;8.40;99.90
18207;DHT22;9229;52.354;20.886;2024-03-02T18:21:29;8.50;99.90
18207;DHT22;9229;52.354;20.886;2024-03-02T18:26:35;8.50;99.90
18207;DHT22;9229;52.354;20.886;2024-03-02T18:31:37;8.40;99.90
18207;DHT22;9229;52.354;20.886;2024-03-02T18:36:39;8.50;99.90
18207;DHT22;9229;52.354;20.886;2024-03-02T18:41:43;8.50;99.90
18207;DHT22;9229;52.354;20.886;2024-03-02T18:46:45;8.50;99.90
18207;DHT22;9229;52.354;20.886;2024-03-02T18:51:47;8.50;99.90
18207;DHT22;9229;52.354;20.886;2024-03-02T18:56:52;8.40;99.90
18207;DHT22;9229;52.354;20.886;2024-03-02T19:01:54;8.40;99.90
18207;DHT22;9229;52.354;20.886;2024-03-02T19:06:56;8.40;99.90
18207;DHT22;9229;52.354;20.886;2024-03-02T19:12:00;8.30;99.90
18207;DHT22;9229;52.354;20.886;2024-03-02T19:17:02;8.30;99.90
18207;DHT22;9229;52.354;20.886;2024-03-02T19:22:04;8.20;99.90
18207;DHT22;9229;52.354;20.886;2024-03-02T19:27:07;8.20;99.90
18207;DHT22;9229;52.354;20.886;2024-03-02T19:32:10;8.20;99.90
18207;DHT22;9229;52.354;20.886;2024-03-02T19:37:11;8.10;99.90
18207;DHT22;9229;52.354;20.886;2024-03-02T19:42:16;8.10;99.90
18207;DHT22;9229;52.354;20.886;2024-03-02T19:47:18;8.20;99.90
18207;DHT22;9229;52.354;20.886;2024-03-02T19:52:20;8.10;99.90
18207;DHT22;9229;52.354;20.886;2024-03-02T19:57:23;8.10;99.90
18207;DHT22;9229;52.354;20.886;2024-03-02T20:02:25;8.10;99.90
18207;DHT22;9229;52.354;20.886;2024-03-02T20:07:28;8.10;99.90
18207;DHT22;9229;52.354;20.886;2024-03-02T20:12:32;8.00;99.90
18207;DHT22;9229;52.354;20.886;2024-03-02T20:17:35;8.00;99.90
18207;DHT22;9229;52.354;20.886;2024-03-02T20:22:38;8.00;99.90
18207;DHT22;9229;52.354;20.886;2024-03-02T20:27:42;8.00;99.90
18207;DHT22;9229;52.354;20.886;2024-03-02T20:32:45;7.90;99.90
18207;DHT22;9229;52.354;20.886;2024-03-02T20:37:47;7.90;99.90
18207;DHT22;9229;52.354;20.886;2024-03-02T20:42:52;7.90;99.90
18207;DHT22;9229;52.354;20.886;2024-03-02T20:47:54;7.90;99.90
18207;DHT22;9229;52.354;20.886;2024-03-02T20:52:57;7.90;99.90
18207;DHT22;9229;52.354;20.886;2024-03-02T20:58:03;7.90;99.90
18207;DHT22;9229;52.354;20.886;2024-03-02T21:03:05;7.90;99.90
18207;DHT22;9229;52.354;20.886;2024-03-02T21:08:07;7.90;99.90
18207;DHT22;9229;52.354;20.886;2024-03-02T21:13:11;7.90;99.90
18207;DHT22;9229;52.354;20.886;2024-03-02T21:18:13;7.90;99.90
18207;DHT22;9229;52.354;20.886;2024-03-02T21:23:17;7.80;99.90
18207;DHT22;9229;52.354;20.886;2024-03-02T21:28:21;7.80;99.90
18207;DHT22;9229;52.354;20.886;2024-03-02T21:33:26;7.80;99.90
18207;DHT22;9229;52.354;20.886;2024-03-02T21:38:29;7.80;99.90
18207;DHT22;9229;52.354;20.886;2024-03-02T21:43:33;7.80;99.90
18207;DHT22;9229;52.354;20.886;2024-03-02T21:48:35;7.80;99.90
18207;DHT22;9229;52.354;20.886;2024-03-02T21:53:39;7.80;99.90
18207;DHT22;9229;52.354;20.886;2024-03-02T21:58:42;7.80;99.90
18207;DHT22;9229;52.354;20.886;2024-03-02T22:03:44;7.80;99.90
18207;DHT22;9229;52.354;20.886;2024-03-02T22:08:47;7.80;99.90
18207;DHT22;9229;52.354;20.886;2024-03-02T22:13:51;7.80;99.90
18207;DHT22;9229;52.354;20.886;2024-03-02T22:18:53;7.80;99.90
18207;DHT22;9229;52.354;20.886;2024-03-02T22:23:59;7.80;99.90
18207;DHT22;9229;52.354;20.886;2024-03-02T22:29:02;7.80;99.90
18207;DHT22;9229;52.354;20.886;2024-03-02T22:34:06;7.80;99.90
18207;DHT22;9229;52.354;20.886;2024-03-02T22:39:08;7.80;99.90
18207;DHT22;9229;52.354;20.886;2024-03-02T22:44:19;7.80;99.90
18207;DHT22;9229;52.354;20.886;2024-03-02T22:56:52;7.90;99.90
18207;DHT22;9229;52.354;20.886;2024-03-02T23:08:30;7.90;99.90
18207;DHT22;9229;52.354;20.886;2024-03-02T23:14:11;7.90;99.90
18207;DHT22;9229;52.354;20.886;2024-03-02T23:20:11;7.90;99.90
18207;DHT22;9229;52.354;20.886;2024-03-02T23:51:28;8.00;99.90
18207;DHT22;9229;52.354;20.886;2024-03-02T23:56:44;8.00;99.90
